Time;durP1;ratioP1;P1;durP2;ratioP2;P2;SDS_P1;SDS_P2;PMS_P1;PMS_P2;Temp;Humidity;BMP_temperature;BMP_pressure;BME280_temperature;BME280_humidity;BME280_pressure;Samples;Min_cycle;Max_cycle;Signal;HPM_P1;HPM_P2
2022/05/18 00:00:15;;;;;;;7.70;3.78;;;;;;;;;;5051651;28;20023;-84
2022/05/18 00:02:41;;;;;;;13.82;3.83;;;;;;;;;;5052236;28;20025;-85
2022/05/18 00:05:08;;;;;;;6.88;2.90;;;;;;;;;;5051757;28;20028;-84
2022/05/18 00:07:35;;;;;;;5.82;2.72;;;;;;;;;;5053696;28;20547;-85
2022/05/18 00:10:01;;;;;;;10.52;3.38;;;;;;;;;;5062593;28;20025;-85
2022/05/18 00:12:27;;;;;;;7.22;3.03;;;;;;;;;;5051333;28;20505;-85
2022/05/18 00:14:54;;;;;;;7.03;2.72;;;;;;;;;;5051142;28;20025;-84
2022/05/18 00:17:20;;;;;;;6.30;2.95;;;;;;;;;;5051808;28;20047;-86
2022/05/18 00:19:47;;;;;;;6.32;3.05;;;;;;;;;;5052783;28;20025;-85
2022/05/18 00:22:13;;;;;;;6.75;3.38;;;;;;;;;;5052196;28;20389;-85
2022/05/18 00:24:39;;;;;;;11.68;3.65;;;;;;;;;;5051440;28;20024;-85
2022/05/18 00:27:05;;;;;;;9.82;3.53;;;;;;;;;;5051139;28;20497;-85
2022/05/18 00:29:32;;;;;;;8.68;3.40;;;;;;;;;;5051065;28;20097;-85
2022/05/18 00:31:58;;;;;;;8.10;3.40;;;;;;;;;;5050493;28;20035;-85
2022/05/18 00:34:25;;;;;;;8.98;3.90;;;;;;;;;;5051540;28;20353;-86
2022/05/18 00:36:51;;;;;;;8.15;3.67;;;;;;;;;;5051211;28;20021;-86
2022/05/18 00:39:19;;;;;;;9.00;4.20;;;;;;;;;;5050996;28;20051;-85
2022/05/18 00:41:45;;;;;;;7.38;3.63;;;;;;;;;;5051192;28;20023;-85
2022/05/18 00:44:11;;;;;;;7.63;3.92;;;;;;;;;;5050824;28;20032;-85
2022/05/18 00:46:38;;;;;;;8.52;4.25;;;;;;;;;;5048443;28;20056;-85
2022/05/18 00:49:07;;;;;;;10.73;3.92;;;;;;;;;;5049653;28;20029;-85
2022/05/18 00:51:53;;;;;;;8.43;3.60;;;;;;;;;;5050879;28;20482;-85
2022/05/18 00:54:23;;;;;;;12.15;3.30;;;;;;;;;;5050688;28;20492;-85
2022/05/18 00:57:05;;;;;;;10.00;4.38;;;;;;;;;;5050163;28;20500;-86
2022/05/18 00:59:38;;;;;;;10.10;3.75;;;;;;;;;;5050414;28;20393;-86
2022/05/18 01:02:05;;;;;;;4.65;2.83;;;;;;;;;;5050964;28;20022;-85
2022/05/18 01:04:32;;;;;;;9.45;3.70;;;;;;;;;;5063635;28;20039;-85
2022/05/18 01:07:04;;;;;;;7.10;3.47;;;;;;;;;;5050331;28;20571;-85
2022/05/18 01:09:38;;;;;;;7.05;3.55;;;;;;;;;;5050570;28;20040;-85
2022/05/18 01:12:05;;;;;;;6.53;3.70;;;;;;;;;;5049055;28;20497;-86
2022/05/18 01:14:34;;;;;;;6.63;3.53;;;;;;;;;;5050076;28;20032;-86
2022/05/18 01:17:01;;;;;;;8.48;3.20;;;;;;;;;;5050447;28;20027;-85
2022/05/18 01:19:36;;;;;;;6.88;3.67;;;;;;;;;;5052659;28;20039;-85
2022/05/18 01:22:29;;;;;;;6.75;3.67;;;;;;;;;;5050255;28;20389;-85
2022/05/18 01:25:13;;;;;;;8.60;4.25;;;;;;;;;;5029636;28;20041;-86
2022/05/18 01:27:40;;;;;;;9.05;4.50;;;;;;;;;;5008303;28;20037;-85
2022/05/18 01:30:06;;;;;;;7.93;4.30;;;;;;;;;;5010373;28;20037;-85
2022/05/18 01:32:49;;;;;;;8.07;4.07;;;;;;;;;;5029663;28;20037;-86
2022/05/18 01:35:17;;;;;;;7.70;4.10;;;;;;;;;;5029537;28;20038;-85
2022/05/18 01:37:44;;;;;;;12.38;4.03;;;;;;;;;;5029865;28;20036;-86
2022/05/18 01:40:31;;;;;;;11.00;4.50;;;;;;;;;;5018054;28;20034;-86
2022/05/18 01:43:17;;;;;;;9.82;4.68;;;;;;;;;;5004960;28;20052;-85
2022/05/18 01:45:44;;;;;;;11.13;4.22;;;;;;;;;;5005103;28;20030;-86
2022/05/18 01:48:11;;;;;;;7.28;4.25;;;;;;;;;;5018151;28;20137;-86
2022/05/18 01:50:38;;;;;;;7.80;3.83;;;;;;;;;;5017377;28;20029;-86
2022/05/18 01:53:04;;;;;;;12.27;4.40;;;;;;;;;;5029511;28;20030;-85
2022/05/18 01:55:32;;;;;;;7.13;3.70;;;;;;;;;;5015613;28;20048;-87
2022/05/18 01:57:58;;;;;;;9.35;4.00;;;;;;;;;;5017726;28;20036;-85
2022/05/18 02:00:25;;;;;;;10.20;4.10;;;;;;;;;;5018358;28;20034;-86
2022/05/18 02:02:52;;;;;;;9.25;4.15;;;;;;;;;;5039297;28;20031;-86
2022/05/18 02:05:18;;;;;;;12.80;4.57;;;;;;;;;;5050035;28;20037;-85
2022/05/18 02:07:44;;;;;;;9.18;4.07;;;;;;;;;;5052204;28;20037;-84
2022/05/18 02:10:11;;;;;;;9.10;4.18;;;;;;;;;;5053206;28;20024;-86
2022/05/18 02:12:39;;;;;;;7.53;4.30;;;;;;;;;;5053387;28;20029;-86
2022/05/18 02:15:06;;;;;;;8.85;4.43;;;;;;;;;;5053803;28;20516;-86
2022/05/18 02:17:32;;;;;;;6.15;4.50;;;;;;;;;;5053804;28;20562;-86
2022/05/18 02:19:58;;;;;;;8.65;4.22;;;;;;;;;;5053722;28;20031;-86
2022/05/18 02:22:25;;;;;;;10.55;4.47;;;;;;;;;;5056026;28;20029;-86
2022/05/18 02:24:51;;;;;;;11.30;4.22;;;;;;;;;;5053835;28;20051;-86
2022/05/18 02:27:18;;;;;;;9.75;4.93;;;;;;;;;;5052960;28;20053;-86
2022/05/18 02:29:44;;;;;;;8.15;4.80;;;;;;;;;;5052166;28;20036;-85
2022/05/18 02:32:11;;;;;;;7.65;4.13;;;;;;;;;;5037737;28;20378;-86
2022/05/18 02:34:37;;;;;;;8.90;4.43;;;;;;;;;;5066552;28;20031;-85
2022/05/18 02:37:04;;;;;;;10.98;4.15;;;;;;;;;;5053222;28;20029;-85
2022/05/18 02:39:30;;;;;;;8.65;4.38;;;;;;;;;;5053324;28;20029;-86
2022/05/18 02:41:57;;;;;;;8.65;4.22;;;;;;;;;;5052902;28;20028;-85
2022/05/18 02:44:23;;;;;;;7.28;3.88;;;;;;;;;;5053275;28;20135;-86
2022/05/18 02:46:50;;;;;;;10.23;4.50;;;;;;;;;;5054080;28;20060;-86
2022/05/18 02:49:16;;;;;;;9.25;3.88;;;;;;;;;;5054257;28;20486;-86
2022/05/18 02:51:42;;;;;;;12.90;4.38;;;;;;;;;;5053089;28;20033;-86
2022/05/18 02:56:54;;;;;;;15.63;4.63;;;;;;;;;;5052956;28;20431;-86
2022/05/18 02:59:22;;;;;;;7.03;4.28;;;;;;;;;;5053392;28;20020;-86
2022/05/18 03:01:48;;;;;;;10.63;4.60;;;;;;;;;;5054237;28;20029;-86
2022/05/18 03:04:15;;;;;;;7.53;4.78;;;;;;;;;;5053859;28;20029;-86
2022/05/18 03:06:41;;;;;;;10.65;5.00;;;;;;;;;;5052649;28;20436;-86
2022/05/18 03:09:08;;;;;;;8.20;5.20;;;;;;;;;;5051029;28;20035;-87
2022/05/18 03:11:34;;;;;;;9.20;4.78;;;;;;;;;;5052671;28;20021;-86
2022/05/18 03:14:00;;;;;;;7.28;4.53;;;;;;;;;;5052735;28;20383;-86
2022/05/18 03:16:28;;;;;;;11.80;4.70;;;;;;;;;;5065807;28;20031;-86
2022/05/18 03:18:54;;;;;;;10.85;5.22;;;;;;;;;;5052246;28;20039;-86
2022/05/18 03:24:05;;;;;;;10.80;4.63;;;;;;;;;;5052115;28;20033;-87
2022/05/18 03:26:33;;;;;;;16.38;5.15;;;;;;;;;;5052459;28;20508;-87
2022/05/18 03:28:59;;;;;;;16.85;5.45;;;;;;;;;;5052454;28;20518;-85
2022/05/18 03:31:27;;;;;;;7.30;4.43;;;;;;;;;;5054697;28;20090;-86
2022/05/18 03:33:55;;;;;;;9.75;4.85;;;;;;;;;;5052300;28;20436;-86
2022/05/18 03:36:21;;;;;;;9.73;4.38;;;;;;;;;;5052107;28;20070;-86
2022/05/18 03:38:48;;;;;;;8.70;4.88;;;;;;;;;;5051841;28;20027;-86
2022/05/18 03:41:16;;;;;;;8.43;4.55;;;;;;;;;;5052322;28;20033;-86
2022/05/18 03:43:43;;;;;;;8.35;4.68;;;;;;;;;;5054386;28;20032;-86
2022/05/18 03:46:09;;;;;;;9.88;4.85;;;;;;;;;;5052361;28;20049;-86
2022/05/18 03:48:36;;;;;;;9.05;4.47;;;;;;;;;;5058930;28;20037;-86
2022/05/18 03:51:04;;;;;;;10.25;4.65;;;;;;;;;;5041752;28;20016;-86
2022/05/18 03:53:30;;;;;;;11.10;4.57;;;;;;;;;;5050557;28;20025;-86
2022/05/18 03:55:57;;;;;;;8.35;4.22;;;;;;;;;;5052026;28;20031;-86
2022/05/18 03:58:23;;;;;;;9.77;4.30;;;;;;;;;;5051746;28;20040;-87
2022/05/18 04:00:50;;;;;;;6.78;4.47;;;;;;;;;;5051937;28;20021;-87
2022/05/18 04:03:18;;;;;;;10.48;4.80;;;;;;;;;;5051771;28;20031;-87
2022/05/18 04:05:45;;;;;;;8.60;4.93;;;;;;;;;;5052104;28;20021;-86
2022/05/18 04:08:11;;;;;;;7.10;5.20;;;;;;;;;;5035462;28;20379;-87
2022/05/18 04:10:39;;;;;;;25.98;5.50;;;;;;;;;;5053678;28;20027;-86
2022/05/18 04:13:06;;;;;;;13.57;5.07;;;;;;;;;;5051544;28;20033;-86
2022/05/18 04:15:32;;;;;;;10.77;4.45;;;;;;;;;;5051790;28;20098;-86
2022/05/18 04:17:59;;;;;;;7.47;4.28;;;;;;;;;;5051337;28;20017;-86
2022/05/18 04:20:25;;;;;;;11.40;4.75;;;;;;;;;;5050138;28;20029;-86
2022/05/18 04:22:52;;;;;;;7.93;4.55;;;;;;;;;;5051984;28;20021;-87
2022/05/18 04:25:23;;;;;;;11.75;4.70;;;;;;;;;;5052716;28;20017;-86
2022/05/18 04:27:50;;;;;;;9.98;4.50;;;;;;;;;;5048533;28;20044;-86
2022/05/18 04:30:17;;;;;;;9.43;4.88;;;;;;;;;;5050366;28;20027;-87
2022/05/18 04:32:44;;;;;;;9.45;5.20;;;;;;;;;;5051341;28;20031;-87
2022/05/18 04:35:11;;;;;;;12.85;4.82;;;;;;;;;;5051455;28;20025;-88
2022/05/18 04:37:37;;;;;;;15.23;4.88;;;;;;;;;;5053117;28;20037;-88
2022/05/18 04:40:04;;;;;;;13.98;5.25;;;;;;;;;;5051100;28;20024;-86
2022/05/18 04:42:30;;;;;;;12.38;4.90;;;;;;;;;;5050978;28;20025;-87
2022/05/18 04:44:57;;;;;;;13.10;5.65;;;;;;;;;;5050922;28;20393;-86
2022/05/18 04:47:24;;;;;;;10.02;4.50;;;;;;;;;;5050745;28;20421;-85
2022/05/18 04:49:51;;;;;;;8.30;4.38;;;;;;;;;;5050880;28;20025;-86
2022/05/18 04:52:17;;;;;;;9.70;4.65;;;;;;;;;;5051790;28;20054;-86
2022/05/18 04:54:44;;;;;;;8.13;4.53;;;;;;;;;;5049540;28;20029;-86
2022/05/18 04:57:11;;;;;;;10.52;4.07;;;;;;;;;;5050682;28;20021;-86
2022/05/18 04:59:37;;;;;;;11.18;5.13;;;;;;;;;;5049740;28;20273;-88
2022/05/18 05:02:04;;;;;;;13.75;5.13;;;;;;;;;;5050697;28;20038;-88
2022/05/18 05:04:31;;;;;;;16.00;5.15;;;;;;;;;;5052728;28;20474;-87
2022/05/18 05:06:58;;;;;;;9.98;4.97;;;;;;;;;;5048624;28;20037;-87
2022/05/18 05:09:24;;;;;;;6.53;4.32;;;;;;;;;;5050631;28;20017;-87
2022/05/18 05:11:51;;;;;;;10.05;4.63;;;;;;;;;;5050389;28;20025;-86
2022/05/18 05:14:18;;;;;;;14.93;5.10;;;;;;;;;;5050499;28;20028;-87
2022/05/18 05:16:44;;;;;;;15.65;4.65;;;;;;;;;;5052169;28;20407;-86
2022/05/18 05:19:11;;;;;;;12.65;4.68;;;;;;;;;;5051199;28;20025;-87
2022/05/18 05:21:42;;;;;;;11.20;4.88;;;;;;;;;;5050588;28;20028;-87
2022/05/18 05:24:08;;;;;;;;;;;;;;;;;;5050714;28;20478;-87
2022/05/18 05:26:34;;;;;;;11.55;4.68;;;;;;;;;;5050392;28;19925;-86
2022/05/18 05:29:01;;;;;;;15.45;4.95;;;;;;;;;;5049219;28;20029;-85
2022/05/18 05:31:27;;;;;;;6.10;4.25;;;;;;;;;;5052401;28;20074;-86
2022/05/18 05:33:54;;;;;;;9.98;4.93;;;;;;;;;;5049797;28;20025;-86
2022/05/18 05:36:20;;;;;;;11.00;4.57;;;;;;;;;;5050069;28;20052;-85
2022/05/18 05:38:46;;;;;;;10.40;4.80;;;;;;;;;;5050445;28;20009;-85
2022/05/18 05:41:13;;;;;;;8.80;4.32;;;;;;;;;;5050100;28;20021;-85
2022/05/18 05:43:42;;;;;;;9.82;4.68;;;;;;;;;;5063537;28;20035;-85
2022/05/18 05:46:10;;;;;;;15.48;4.68;;;;;;;;;;5048463;28;20407;-85
2022/05/18 05:48:36;;;;;;;12.25;7.45;;;;;;;;;;5049484;28;20391;-85
2022/05/18 05:51:04;;;;;;;9.38;4.70;;;;;;;;;;5050171;28;20029;-84
2022/05/18 05:53:32;;;;;;;7.45;4.88;;;;;;;;;;5050083;28;20043;-86
2022/05/18 05:55:59;;;;;;;12.52;4.80;;;;;;;;;;5050248;28;20021;-85
2022/05/18 05:58:33;;;;;;;9.73;4.88;;;;;;;;;;5052266;28;20077;-85
2022/05/18 06:00:59;;;;;;;10.13;4.63;;;;;;;;;;5049842;28;20039;-85
2022/05/18 06:03:26;;;;;;;13.85;4.47;;;;;;;;;;5048968;28;20025;-82
2022/05/18 06:05:52;;;;;;;9.50;4.85;;;;;;;;;;5047677;28;20039;-76
2022/05/18 06:08:19;;;;;;;10.55;5.30;;;;;;;;;;5048922;28;20044;-76
2022/05/18 06:10:45;;;;;;;10.40;5.40;;;;;;;;;;5050795;28;20036;-75
2022/05/18 06:13:12;;;;;;;13.23;4.88;;;;;;;;;;5051756;28;20493;-76
2022/05/18 06:15:39;;;;;;;11.15;5.35;;;;;;;;;;5049671;28;20029;-76
2022/05/18 06:18:05;;;;;;;11.57;4.30;;;;;;;;;;5048967;28;20482;-76
2022/05/18 06:20:32;;;;;;;6.75;4.55;;;;;;;;;;5048280;28;20427;-76
2022/05/18 06:22:59;;;;;;;11.77;4.30;;;;;;;;;;5050065;28;20017;-77
2022/05/18 06:25:25;;;;;;;10.32;4.05;;;;;;;;;;5049543;28;20474;-77
2022/05/18 06:27:51;;;;;;;13.80;4.82;;;;;;;;;;5045625;28;20067;-76
2022/05/18 06:30:18;;;;;;;9.90;3.92;;;;;;;;;;5046895;28;20370;-76
2022/05/18 06:32:44;;;;;;;15.65;4.50;;;;;;;;;;5048873;28;20025;-76
2022/05/18 06:35:10;;;;;;;8.43;4.22;;;;;;;;;;5048917;28;20022;-75
2022/05/18 06:37:37;;;;;;;11.32;4.38;;;;;;;;;;5050814;28;20098;-76
2022/05/18 06:40:04;;;;;;;11.73;4.57;;;;;;;;;;5049225;28;20037;-76
2022/05/18 06:42:30;;;;;;;8.15;4.05;;;;;;;;;;5049235;28;20114;-76
2022/05/18 06:44:57;;;;;;;7.85;4.05;;;;;;;;;;5048897;28;20027;-76
2022/05/18 06:47:23;;;;;;;6.07;4.13;;;;;;;;;;5048224;28;20428;-76
2022/05/18 06:49:50;;;;;;;11.63;3.95;;;;;;;;;;5050131;28;20021;-76
2022/05/18 06:52:16;;;;;;;9.20;4.28;;;;;;;;;;5050032;28;20029;-76
2022/05/18 06:54:42;;;;;;;7.93;3.65;;;;;;;;;;5047109;28;20025;-76
2022/05/18 06:57:08;;;;;;;8.88;4.03;;;;;;;;;;5050756;28;20039;-75
2022/05/18 06:59:35;;;;;;;10.55;4.05;;;;;;;;;;5051052;28;20488;-76
2022/05/18 07:02:01;;;;;;;9.07;4.25;;;;;;;;;;5051968;28;20440;-76
2022/05/18 07:04:27;;;;;;;8.43;3.55;;;;;;;;;;5052158;28;20013;-75
2022/05/18 07:06:54;;;;;;;10.25;4.45;;;;;;;;;;5051287;28;20048;-75
2022/05/18 07:09:21;;;;;;;6.70;3.70;;;;;;;;;;5048643;28;20031;-76
2022/05/18 07:11:49;;;;;;;10.02;4.35;;;;;;;;;;5051716;28;20713;-76
2022/05/18 07:14:16;;;;;;;9.40;4.20;;;;;;;;;;5052248;28;20025;-76
2022/05/18 07:16:45;;;;;;;10.00;4.00;;;;;;;;;;5051986;28;20037;-76
2022/05/18 07:19:12;;;;;;;5.90;3.45;;;;;;;;;;5051414;28;20033;-76
2022/05/18 07:21:38;;;;;;;7.88;4.07;;;;;;;;;;5051928;28;20025;-76
2022/05/18 07:24:05;;;;;;;6.38;3.60;;;;;;;;;;5050466;28;20086;-76
2022/05/18 07:26:32;;;;;;;8.70;3.50;;;;;;;;;;5051164;28;20025;-76
2022/05/18 07:28:58;;;;;;;9.57;3.95;;;;;;;;;;5051315;28;20035;-76
2022/05/18 07:31:25;;;;;;;8.88;3.78;;;;;;;;;;5053517;28;20401;-73
2022/05/18 07:33:52;;;;;;;9.27;3.60;;;;;;;;;;5051394;28;20029;-74
2022/05/18 07:36:19;;;;;;;9.10;3.65;;;;;;;;;;5051852;28;20021;-74
2022/05/18 07:38:45;;;;;;;9.30;3.50;;;;;;;;;;5051927;28;20037;-73
2022/05/18 07:41:13;;;;;;;9.38;3.60;;;;;;;;;;5049923;28;20021;-74
2022/05/18 07:43:40;;;;;;;11.38;3.88;;;;;;;;;;5048599;28;20021;-73
2022/05/18 07:46:07;;;;;;;6.95;3.33;;;;;;;;;;5051095;28;20045;-73
2022/05/18 07:48:34;;;;;;;12.45;4.85;;;;;;;;;;5051101;28;20052;-74
2022/05/18 07:51:02;;;;;;;9.60;4.13;;;;;;;;;;5049836;28;20047;-74
2022/05/18 07:53:28;;;;;;;7.07;4.00;;;;;;;;;;5051451;28;20032;-73
2022/05/18 07:55:55;;;;;;;9.57;3.60;;;;;;;;;;5051020;28;20016;-73
2022/05/18 07:58:22;;;;;;;8.57;3.60;;;;;;;;;;5053022;28;20482;-72
2022/05/18 08:00:48;;;;;;;9.77;3.70;;;;;;;;;;5050953;28;20520;-73
2022/05/18 08:03:15;;;;;;;7.32;3.63;;;;;;;;;;5049587;28;20413;-74
2022/05/18 08:05:45;;;;;;;10.75;3.70;;;;;;;;;;5049815;28;20486;-74
2022/05/18 08:08:12;;;;;;;;;;;;;;;;;;5039327;28;20033;-73
2022/05/18 08:16:10;;;;;;;7.57;3.65;;;;;;;;;;5050133;28;20021;-72
2022/05/18 08:18:37;;;;;;;14.88;3.72;;;;;;;;;;5050556;28;20497;-73
2022/05/18 08:21:03;;;;;;;10.68;3.58;;;;;;;;;;5048792;28;20040;-73
2022/05/18 08:23:30;;;;;;;12.63;3.72;;;;;;;;;;5051274;28;20036;-73
2022/05/18 08:25:56;;;;;;;9.85;3.65;;;;;;;;;;5050050;28;20027;-73
2022/05/18 08:28:23;;;;;;;12.52;3.58;;;;;;;;;;5049844;28;20043;-74
2022/05/18 08:30:49;;;;;;;8.77;3.80;;;;;;;;;;5050272;28;20021;-73
2022/05/18 08:33:15;;;;;;;6.70;3.65;;;;;;;;;;5050714;28;20029;-73
2022/05/18 08:35:45;;;;;;;7.43;3.45;;;;;;;;;;5050154;28;20016;-73
2022/05/18 08:38:12;;;;;;;7.95;3.72;;;;;;;;;;5041187;28;20032;-74
2022/05/18 08:40:41;;;;;;;8.45;3.67;;;;;;;;;;5051194;28;20421;-73
2022/05/18 08:43:09;;;;;;;17.23;4.10;;;;;;;;;;5050664;28;20506;-73
2022/05/18 08:45:38;;;;;;;12.82;3.95;;;;;;;;;;5048783;28;20053;-74
2022/05/18 08:48:06;;;;;;;6.57;3.50;;;;;;;;;;5049649;28;20047;-73
2022/05/18 08:50:33;;;;;;;9.40;3.47;;;;;;;;;;5048639;28;20024;-73
2022/05/18 08:53:17;;;;;;;8.40;3.90;;;;;;;;;;5049229;28;20029;-74
2022/05/18 08:55:50;;;;;;;12.48;3.78;;;;;;;;;;5047821;28;20040;-73
2022/05/18 08:58:36;;;;;;;7.70;3.42;;;;;;;;;;5049149;28;20485;-74
2022/05/18 09:01:10;;;;;;;5.70;3.13;;;;;;;;;;5049385;28;20497;-73
2022/05/18 09:03:41;;;;;;;12.77;3.72;;;;;;;;;;5049755;28;20082;-73
2022/05/18 09:06:11;;;;;;;7.15;3.33;;;;;;;;;;5049937;28;20506;-74
2022/05/18 09:08:42;;;;;;;7.13;3.15;;;;;;;;;;5049781;28;20036;-73
2022/05/18 09:11:14;;;;;;;13.13;3.67;;;;;;;;;;5049929;28;20033;-73
2022/05/18 09:13:40;;;;;;;6.15;3.38;;;;;;;;;;5047389;28;20025;-74
2022/05/18 09:16:14;;;;;;;12.60;3.63;;;;;;;;;;5048441;28;20043;-72
2022/05/18 09:18:43;;;;;;;6.22;3.13;;;;;;;;;;5049744;28;20764;-72
2022/05/18 09:21:10;;;;;;;5.05;3.13;;;;;;;;;;5049388;28;20027;-72
2022/05/18 09:23:51;;;;;;;7.68;3.15;;;;;;;;;;5049526;28;20508;-71
2022/05/18 09:26:21;;;;;;;7.63;3.28;;;;;;;;;;5039617;28;20047;-73
2022/05/18 09:28:53;;;;;;;9.38;3.08;;;;;;;;;;5051109;28;20039;-72
2022/05/18 09:31:34;;;;;;;10.38;4.00;;;;;;;;;;5051185;28;20446;-73
2022/05/18 09:34:00;;;;;;;14.13;4.05;;;;;;;;;;5048751;28;20040;-73
2022/05/18 09:36:32;;;;;;;13.93;6.00;;;;;;;;;;5049529;28;20025;-73
2022/05/18 09:39:07;;;;;;;11.18;6.25;;;;;;;;;;5048437;28;20027;-73
2022/05/18 09:41:36;;;;;;;9.52;4.97;;;;;;;;;;5048973;28;20025;-73
2022/05/18 09:44:12;;;;;;;13.10;5.47;;;;;;;;;;5049777;28;20033;-73
2022/05/18 09:46:42;;;;;;;8.38;5.13;;;;;;;;;;5051343;28;20037;-73
2022/05/18 09:49:20;;;;;;;8.00;4.82;;;;;;;;;;5063278;28;20037;-73
2022/05/18 09:51:47;;;;;;;9.65;5.15;;;;;;;;;;5049555;28;20025;-73
2022/05/18 09:54:14;;;;;;;7.95;4.68;;;;;;;;;;5047745;28;20033;-72
2022/05/18 09:57:04;;;;;;;12.13;5.25;;;;;;;;;;5048792;28;20519;-76
2022/05/18 09:59:35;;;;;;;9.45;4.88;;;;;;;;;;5031889;28;20033;-75
2022/05/18 10:07:46;;;;;;;7.05;4.28;;;;;;;;;;5046781;28;20532;-75
2022/05/18 10:10:38;;;;;;;10.18;3.60;;;;;;;;;;5048653;28;20021;-75
2022/05/18 10:13:08;;;;;;;8.23;3.70;;;;;;;;;;5045847;28;20394;-75
2022/05/18 10:15:37;;;;;;;8.43;3.80;;;;;;;;;;5049605;28;20031;-75
2022/05/18 10:18:30;;;;;;;8.05;3.88;;;;;;;;;;5047694;28;20036;-75
2022/05/18 10:21:06;;;;;;;6.43;3.40;;;;;;;;;;5028467;28;20040;-76
2022/05/18 10:23:45;;;;;;;10.60;3.28;;;;;;;;;;5012265;28;20586;-75
2022/05/18 10:26:22;;;;;;;8.45;3.63;;;;;;;;;;5012946;28;20021;-75
2022/05/18 10:28:55;;;;;;;9.70;2.97;;;;;;;;;;5026878;28;20052;-75
2022/05/18 10:31:32;;;;;;;11.23;3.30;;;;;;;;;;5032446;28;20457;-75
2022/05/18 10:34:17;;;;;;;9.30;3.58;;;;;;;;;;5021990;28;20473;-75
2022/05/18 10:36:46;;;;;;;8.98;3.17;;;;;;;;;;5021162;28;20132;-75
2022/05/18 10:39:13;;;;;;;5.63;3.15;;;;;;;;;;5019834;28;20409;-76
2022/05/18 10:41:41;;;;;;;8.40;3.20;;;;;;;;;;5020255;28;20063;-75
2022/05/18 10:44:21;;;;;;;7.78;3.13;;;;;;;;;;5016244;28;20033;-75
2022/05/18 10:46:49;;;;;;;7.05;2.75;;;;;;;;;;5029174;28;20568;-75
2022/05/18 10:49:33;;;;;;;6.65;2.78;;;;;;;;;;5026458;28;20060;-75
2022/05/18 10:52:19;;;;;;;5.13;2.90;;;;;;;;;;5014264;28;20060;-75
2022/05/18 10:54:59;;;;;;;7.70;3.17;;;;;;;;;;5031351;28;20389;-74
2022/05/18 10:57:32;;;;;;;6.45;2.35;;;;;;;;;;5038305;28;20021;-75
2022/05/18 11:00:00;;;;;;;8.77;2.83;;;;;;;;;;5051129;28;20519;-75
2022/05/18 11:02:39;;;;;;;8.95;2.53;;;;;;;;;;5052173;28;20009;-75
2022/05/18 11:05:23;;;;;;;5.18;2.72;;;;;;;;;;5052698;28;20083;-75
2022/05/18 11:07:50;;;;;;;3.65;2.50;;;;;;;;;;5050489;28;20482;-75
2022/05/18 11:10:16;;;;;;;7.93;2.30;;;;;;;;;;5053731;28;20078;-75
2022/05/18 11:12:43;;;;;;;4.75;2.13;;;;;;;;;;5051176;28;20039;-75
2022/05/18 11:15:24;;;;;;;5.50;2.20;;;;;;;;;;5051400;28;20031;-74
2022/05/18 11:18:06;;;;;;;3.13;2.17;;;;;;;;;;5052243;28;20021;-75
2022/05/18 11:20:38;;;;;;;5.68;2.38;;;;;;;;;;5052056;28;20021;-75
2022/05/18 11:23:11;;;;;;;10.27;3.10;;;;;;;;;;5051728;28;20029;-76
2022/05/18 11:25:37;;;;;;;5.22;2.30;;;;;;;;;;5064870;28;20027;-75
2022/05/18 11:28:22;;;;;;;7.35;2.60;;;;;;;;;;5051875;28;20037;-75
2022/05/18 11:31:07;;;;;;;5.28;2.38;;;;;;;;;;5052039;28;20109;-75
2022/05/18 11:33:54;;;;;;;4.22;2.10;;;;;;;;;;5051817;28;20687;-75
2022/05/18 11:36:23;;;;;;;6.55;2.45;;;;;;;;;;5049871;28;20028;-75
2022/05/18 11:38:53;;;;;;;3.97;2.30;;;;;;;;;;5052028;28;20013;-76
2022/05/18 11:41:20;;;;;;;4.10;2.10;;;;;;;;;;5051462;28;20021;-74
2022/05/18 11:44:15;;;;;;;8.55;2.63;;;;;;;;;;5052974;28;20515;-75
2022/05/18 11:46:57;;;;;;;6.85;2.25;;;;;;;;;;5028661;28;20041;-75
2022/05/18 11:49:25;;;;;;;3.65;2.17;;;;;;;;;;5053782;28;20040;-75
2022/05/18 11:52:06;;;;;;;9.40;2.50;;;;;;;;;;5051188;28;20025;-75
2022/05/18 11:54:51;;;;;;;4.63;2.20;;;;;;;;;;5051329;28;20057;-75
2022/05/18 11:57:29;;;;;;;4.53;2.38;;;;;;;;;;5050673;28;20029;-75
2022/05/18 12:00:03;;;;;;;6.47;2.50;;;;;;;;;;5051785;28;20027;-75
2022/05/18 12:02:32;;;;;;;4.07;2.10;;;;;;;;;;5051374;28;20021;-75
2022/05/18 12:05:17;;;;;;;7.22;2.05;;;;;;;;;;5050778;28;20023;-75
2022/05/18 12:07:51;;;;;;;6.90;2.22;;;;;;;;;;5049072;28;20509;-76
2022/05/18 12:10:18;;;;;;;6.13;2.63;;;;;;;;;;5049192;28;20043;-75
2022/05/18 12:12:53;;;;;;;7.13;2.40;;;;;;;;;;5050203;28;20028;-75
2022/05/18 12:15:38;;;;;;;9.93;2.38;;;;;;;;;;5050050;28;20032;-76
2022/05/18 12:18:06;;;;;;;4.50;2.28;;;;;;;;;;5049529;28;20025;-75
2022/05/18 12:20:32;;;;;;;6.53;2.15;;;;;;;;;;5050640;28;20025;-76
2022/05/18 12:23:00;;;;;;;4.28;2.30;;;;;;;;;;5049494;28;20039;-75
2022/05/18 12:25:28;;;;;;;7.57;2.25;;;;;;;;;;5053135;28;20021;-75
2022/05/18 12:27:56;;;;;;;6.60;2.25;;;;;;;;;;5050628;28;20041;-75
2022/05/18 12:30:24;;;;;;;3.97;2.38;;;;;;;;;;5050500;28;20025;-75
2022/05/18 12:32:53;;;;;;;4.82;2.38;;;;;;;;;;5050861;28;20640;-75
2022/05/18 12:35:19;;;;;;;9.18;2.15;;;;;;;;;;5048583;28;20026;-76
2022/05/18 12:37:51;;;;;;;4.95;2.05;;;;;;;;;;5052149;28;20035;-76
2022/05/18 12:40:17;;;;;;;4.03;1.95;;;;;;;;;;5051789;28;20446;-76
2022/05/18 12:42:49;;;;;;;5.22;2.30;;;;;;;;;;5050637;28;20036;-75
2022/05/18 12:45:28;;;;;;;5.45;2.38;;;;;;;;;;5049692;28;20027;-75
2022/05/18 12:48:13;;;;;;;4.30;2.23;;;;;;;;;;5050692;28;20051;-75
2022/05/18 12:50:50;;;;;;;8.93;2.25;;;;;;;;;;5037482;28;20028;-75
2022/05/18 12:53:25;;;;;;;8.43;2.70;;;;;;;;;;5047521;28;20010;-75
2022/05/18 12:55:51;;;;;;;7.32;2.50;;;;;;;;;;5050615;28;20033;-77
2022/05/18 12:58:29;;;;;;;6.97;2.50;;;;;;;;;;5051139;28;20474;-75
2022/05/18 13:01:09;;;;;;;6.88;2.47;;;;;;;;;;5047349;28;20035;-76
2022/05/18 13:03:43;;;;;;;16.08;2.55;;;;;;;;;;5048392;28;20029;-75
2022/05/18 13:06:13;;;;;;;7.60;2.53;;;;;;;;;;5049006;28;20013;-76
2022/05/18 13:08:40;;;;;;;6.82;2.20;;;;;;;;;;5050238;28;20505;-74
2022/05/18 13:11:11;;;;;;;4.93;2.03;;;;;;;;;;5049994;28;20037;-75
2022/05/18 13:13:56;;;;;;;4.82;2.25;;;;;;;;;;5052066;28;20389;-76
2022/05/18 13:16:37;;;;;;;9.02;2.22;;;;;;;;;;5050758;28;20493;-76
2022/05/18 13:19:19;;;;;;;4.40;2.28;;;;;;;;;;5050042;28;20035;-76
2022/05/18 13:22:01;;;;;;;9.85;2.40;;;;;;;;;;5050027;28;20040;-75
2022/05/18 13:24:39;;;;;;;9.77;2.50;;;;;;;;;;5049303;28;20009;-75
2022/05/18 13:27:15;;;;;;;6.72;2.38;;;;;;;;;;5049043;28;20047;-76
2022/05/18 13:29:42;;;;;;;5.68;2.10;;;;;;;;;;5049272;28;20013;-76
2022/05/18 13:32:11;;;;;;;6.78;2.40;;;;;;;;;;5048721;28;20017;-76
2022/05/18 13:34:52;;;;;;;8.23;2.25;;;;;;;;;;5050514;28;20031;-76
2022/05/18 13:37:20;;;;;;;8.93;2.10;;;;;;;;;;5049637;28;20029;-75
2022/05/18 13:39:47;;;;;;;5.28;2.08;;;;;;;;;;5049161;28;20019;-76
2022/05/18 13:42:15;;;;;;;7.28;2.30;;;;;;;;;;5049384;28;20029;-76
2022/05/18 13:44:42;;;;;;;9.25;2.60;;;;;;;;;;5049254;28;20564;-75
2022/05/18 13:47:11;;;;;;;5.20;2.22;;;;;;;;;;5047347;28;20111;-75
2022/05/18 13:49:41;;;;;;;5.65;2.33;;;;;;;;;;5051335;28;20500;-77
2022/05/18 13:52:13;;;;;;;8.88;2.60;;;;;;;;;;5047554;28;20025;-77
2022/05/18 13:54:41;;;;;;;8.88;2.30;;;;;;;;;;5049415;28;20043;-76
2022/05/18 13:57:09;;;;;;;10.63;2.42;;;;;;;;;;5048926;28;20506;-76
2022/05/18 13:59:44;;;;;;;5.57;2.17;;;;;;;;;;5049752;28;20033;-77
2022/05/18 14:02:21;;;;;;;6.00;2.70;;;;;;;;;;5049451;28;20526;-76
2022/05/18 14:04:49;;;;;;;4.50;2.38;;;;;;;;;;5050865;28;20029;-76
2022/05/18 14:07:15;;;;;;;5.65;2.60;;;;;;;;;;5053315;28;20048;-76
2022/05/18 14:09:45;;;;;;;5.82;2.15;;;;;;;;;;5053060;28;20082;-75
2022/05/18 14:12:16;;;;;;;6.13;2.30;;;;;;;;;;5052884;28;20062;-76
2022/05/18 14:14:42;;;;;;;5.80;2.42;;;;;;;;;;5053872;28;20025;-76
2022/05/18 14:17:11;;;;;;;7.18;2.50;;;;;;;;;;5053210;28;20017;-76
2022/05/18 14:19:43;;;;;;;10.07;2.30;;;;;;;;;;5055571;28;20454;-76
2022/05/18 14:22:13;;;;;;;6.03;2.00;;;;;;;;;;5052238;28;20397;-75
2022/05/18 14:24:39;;;;;;;;;;;;;;;;;;5053616;28;20033;-77
2022/05/18 14:27:09;;;;;;;10.35;2.90;;;;;;;;;;5053186;28;20377;-76
2022/05/18 14:29:44;;;;;;;9.15;2.90;;;;;;;;;;5053597;28;20033;-77
2022/05/18 14:32:14;;;;;;;8.30;2.80;;;;;;;;;;5053411;28;20033;-77
2022/05/18 14:34:44;;;;;;;10.57;2.97;;;;;;;;;;5051814;28;20028;-76
2022/05/18 14:37:13;;;;;;;12.48;3.63;;;;;;;;;;5053759;28;20037;-75
2022/05/18 14:39:42;;;;;;;8.43;2.60;;;;;;;;;;5053697;28;20034;-75
2022/05/18 14:42:10;;;;;;;7.32;2.90;;;;;;;;;;5052114;28;20035;-77
2022/05/18 14:44:49;;;;;;;7.00;3.25;;;;;;;;;;5053351;28;20365;-76
2022/05/18 14:47:54;;;;;;;6.25;2.72;;;;;;;;;;5037642;28;20064;-77
2022/05/18 14:50:38;;;;;;;10.65;2.78;;;;;;;;;;5015758;28;20030;-77
2022/05/18 14:53:13;;;;;;;9.13;2.88;;;;;;;;;;5032444;28;20041;-76
2022/05/18 14:55:40;;;;;;;8.20;2.72;;;;;;;;;;5037388;28;20143;-76
2022/05/18 14:58:09;;;;;;;6.50;3.20;;;;;;;;;;5035800;28;20106;-77
2022/05/18 15:00:36;;;;;;;6.50;2.83;;;;;;;;;;5035162;28;20032;-77
2022/05/18 15:03:08;;;;;;;11.07;2.85;;;;;;;;;;5035560;28;20445;-77
2022/05/18 15:05:35;;;;;;;10.55;3.28;;;;;;;;;;5033814;28;20032;-77
2022/05/18 15:08:06;;;;;;;6.40;2.42;;;;;;;;;;5032574;28;20045;-77
2022/05/18 15:10:39;;;;;;;7.13;2.72;;;;;;;;;;5037488;28;20044;-78
2022/05/18 15:13:12;;;;;;;5.72;2.70;;;;;;;;;;5035709;28;20033;-77